Schneifelwetter: Wetterstation Hallschlag, 537 m . NN
Wetterdaten: Mittwoch, 26.09.2012
Datum Zeit Temp. A. Feuchte A. Luftdruck Regen Wind Richtung Richtung Sonnenschein T Regen Taupunkt Windchill
26.09.2012 00:00 9,5 C 94 % 998 hPa 0,0 l/m 26,0 km/h (4 Bft) S-SO22.5 165 0 min 0 min 8,6 C 0,9 C
26.09.2012 00:15 9,5 C 94 % 998 hPa 0,0 l/m 27,5 km/h (4 Bft) S-SO22.5 165 0 min 0 min 8,6 C 0,5 C
26.09.2012 00:30 9,5 C 94 % 999 hPa 0,0 l/m 24,0 km/h (4 Bft) S67.5 175 0 min 0 min 8,6 C 1,4 C
26.09.2012 00:45 9,5 C 95 % 998 hPa 0,0 l/m 27,4 km/h (4 Bft) S45 175 0 min 0 min 8,7 C 0,5 C
26.09.2012 01:00 9,4 C 95 % 998 hPa 0,0 l/m 24,7 km/h (4 Bft) S45 170 0 min 0 min 8,6 C 1,1 C
26.09.2012 01:15 9,4 C 95 % 998 hPa 0,0 l/m 16,6 km/h (3 Bft) S45 170 0 min 0 min 8,6 C 3,7 C
26.09.2012 01:30 9,5 C 95 % 998 hPa 0,0 l/m 22,9 km/h (4 Bft) S-SO45 165 0 min 0 min 8,7 C 1,7 C
26.09.2012 01:45 9,5 C 95 % 998 hPa 0,0 l/m 23,1 km/h (4 Bft) S-SW45 200 0 min 0 min 8,7 C 1,7 C
26.09.2012 02:00 9,5 C 95 % 998 hPa 0,0 l/m 23,3 km/h (4 Bft) S-SW45 195 0 min 0 min 8,7 C 1,6 C
26.09.2012 02:15 9,6 C 95 % 998 hPa 0,0 l/m 30,6 km/h (5 Bft) SW67.5 230 0 min 0 min 8,8 C -0,0 C
26.09.2012 02:30 9,6 C 95 % 998 hPa 0,0 l/m 18,6 km/h (3 Bft) S-SW67.5 195 0 min 0 min 8,8 C 3,2 C
26.09.2012 02:45 9,5 C 95 % 998 hPa 0,0 l/m 17,5 km/h (3 Bft) S-SW45 195 0 min 0 min 8,7 C 3,5 C
26.09.2012 03:00 9,5 C 95 % 998 hPa 0,0 l/m 18,1 km/h (3 Bft) S22.5 170 0 min 0 min 8,7 C 3,3 C
26.09.2012 03:15 9,5 C 95 % 998 hPa 0,0 l/m 11,8 km/h (2 Bft) S45 185 0 min 0 min 8,7 C 6,0 C
26.09.2012 03:30 9,5 C 96 % 998 hPa 0,0 l/m 19,8 km/h (3 Bft) SW45 215 0 min 0 min 8,9 C 2,7 C
26.09.2012 03:45 9,5 C 96 % 998 hPa 0,9 l/m 20,1 km/h (4 Bft) S67.5 190 0 min 15 min 8,9 C 2,6 C
26.09.2012 03:59 9,5 C 96 % 998 hPa 0,0 l/m 17,8 km/h (3 Bft) S-SO22.5 165 0 min 0 min 8,9 C 3,4 C
26.09.2012 04:14 9,5 C 96 % 998 hPa 0,3 l/m 14,3 km/h (3 Bft) S45 185 0 min 15 min 8,9 C 4,8 C
26.09.2012 04:29 9,5 C 96 % 998 hPa 0,3 l/m 17,0 km/h (3 Bft) S-SW67.5 195 0 min 15 min 8,9 C 3,7 C
26.09.2012 04:44 9,5 C 96 % 997 hPa 0,3 l/m 17,0 km/h (3 Bft) S22.5 180 0 min 15 min 8,9 C 3,7 C
26.09.2012 04:59 9,5 C 96 % 997 hPa 0,6 l/m 24,5 km/h (4 Bft) S22.5 170 0 min 15 min 8,9 C 1,3 C
26.09.2012 05:14 9,5 C 96 % 998 hPa 0,6 l/m 15,1 km/h (3 Bft) S45 185 0 min 15 min 8,9 C 4,5 C
26.09.2012 05:29 9,5 C 96 % 998 hPa 2,1 l/m 17,5 km/h (3 Bft) S22.5 190 0 min 15 min 8,9 C 3,5 C
26.09.2012 05:44 9,4 C 96 % 998 hPa 1,8 l/m 15,3 km/h (3 Bft) S22.5 175 0 min 15 min 8,8 C 4,3 C
26.09.2012 05:59 9,3 C 96 % 997 hPa 0,6 l/m 18,3 km/h (3 Bft) S45 175 0 min 15 min 8,7 C 3,0 C
26.09.2012 06:14 9,2 C 96 % 997 hPa 0,6 l/m 18,1 km/h (3 Bft) S-SO22.5 165 0 min 15 min 8,6 C 2,9 C
26.09.2012 06:29 9,1 C 97 % 997 hPa 0,6 l/m 16,5 km/h (3 Bft) S-SO45 160 0 min 15 min 8,6 C 3,4 C
26.09.2012 06:44 9,0 C 97 % 997 hPa 0,3 l/m 17,6 km/h (3 Bft) S22.5 170 0 min 15 min 8,5 C 2,9 C
26.09.2012 06:59 9,0 C 97 % 997 hPa 0,6 l/m 19,0 km/h (3 Bft) S45 175 0 min 15 min 8,5 C 2,3 C
26.09.2012 07:14 9,0 C 97 % 997 hPa 1,5 l/m 19,8 km/h (3 Bft) S-SO22.5 160 0 min 15 min 8,5 C 2,1 C
26.09.2012 07:29 9,0 C 97 % 997 hPa 0,9 l/m 18,1 km/h (3 Bft) S45 170 0 min 15 min 8,5 C 2,7 C
26.09.2012 07:44 9,0 C 97 % 997 hPa 0,0 l/m 20,0 km/h (4 Bft) S-SW45 195 0 min 0 min 8,5 C 2,0 C
26.09.2012 08:00 9,0 C 97 % 998 hPa 0,0 l/m 20,7 km/h (4 Bft) S-SW45 210 0 min 0 min 8,5 C 1,8 C
26.09.2012 08:15 9,0 C 97 % 998 hPa 0,3 l/m 15,8 km/h (3 Bft) S-SW22.5 195 0 min 15 min 8,5 C 3,6 C
26.09.2012 08:29 9,0 C 97 % 998 hPa 0,0 l/m 24,6 km/h (4 Bft) SW45 230 0 min 0 min 8,5 C 0,6 C
26.09.2012 08:44 9,1 C 97 % 998 hPa 0,3 l/m 28,3 km/h (4 Bft) SW67.5 215 0 min 15 min 8,6 C -0,2 C
26.09.2012 08:59 9,1 C 97 % 998 hPa 0,3 l/m 20,3 km/h (4 Bft) S45 180 0 min 15 min 8,6 C 2,0 C
26.09.2012 09:14 9,1 C 97 % 998 hPa 0,3 l/m 15,3 km/h (3 Bft) S67.5 190 0 min 15 min 8,6 C 3,9 C
26.09.2012 09:29 9,1 C 96 % 998 hPa 0,3 l/m 19,3 km/h (3 Bft) S-SW45 195 0 min 15 min 8,5 C 2,4 C
26.09.2012 09:45 9,2 C 96 % 999 hPa 0,0 l/m 19,5 km/h (3 Bft) S-SW67.5 200 0 min 0 min 8,6 C 2,4 C
26.09.2012 09:59 9,2 C 96 % 999 hPa 0,0 l/m 25,0 km/h (4 Bft) S-SW45 205 0 min 0 min 8,6 C 0,7 C
26.09.2012 10:14 9,2 C 96 % 999 hPa 0,0 l/m 20,0 km/h (4 Bft) S-SW22.5 210 0 min 0 min 8,6 C 2,3 C
26.09.2012 10:29 9,4 C 95 % 999 hPa 0,0 l/m 21,5 km/h (4 Bft) S-SW45 205 0 min 0 min 8,6 C 2,0 C
26.09.2012 10:44 9,6 C 96 % 999 hPa 0,0 l/m 20,9 km/h (4 Bft) SW45 225 0 min 0 min 9,0 C 2,5 C
26.09.2012 11:00 9,8 C 95 % 999 hPa 0,0 l/m 24,4 km/h (4 Bft) S-SW45 200 0 min 0 min 9,0 C 1,7 C
26.09.2012 11:15 9,9 C 94 % 999 hPa 0,0 l/m 22,0 km/h (4 Bft) SW45 215 0 min 0 min 9,0 C 2,5 C
26.09.2012 11:29 9,9 C 94 % 999 hPa 0,0 l/m 21,9 km/h (4 Bft) S-SW45 210 0 min 0 min 9,0 C 2,6 C
26.09.2012 11:44 10,0 C 94 % 999 hPa 0,0 l/m 19,1 km/h (3 Bft) S-SW45 210 0 min 0 min 9,1 C 3,6 C
26.09.2012 11:59 10,4 C 93 % 999 hPa 0,0 l/m 26,7 km/h (4 Bft) S-SW67.5 200 0 min 0 min 9,3 C 2,0 C
26.09.2012 12:14 10,5 C 92 % 999 hPa 0,0 l/m 28,5 km/h (4 Bft) SW45 235 0 min 0 min 9,3 C 1,7 C
26.09.2012 12:30 10,6 C 92 % 1000 hPa 0,0 l/m 27,6 km/h (4 Bft) S-SW45 210 0 min 0 min 9,4 C 2,0 C
26.09.2012 12:45 11,0 C 91 % 1000 hPa 0,0 l/m 33,0 km/h (5 Bft) S-SW45 205 0 min 0 min 9,6 C 1,5 C
26.09.2012 12:59 11,0 C 89 % 1000 hPa 0,0 l/m 34,4 km/h (5 Bft) S-SW67.5 210 0 min 0 min 9,3 C 1,2 C
26.09.2012 13:14 11,1 C 88 % 1000 hPa 0,0 l/m 32,1 km/h (5 Bft) S-SW45 205 0 min 0 min 9,2 C 1,8 C
26.09.2012 13:29 11,0 C 88 % 1000 hPa 0,0 l/m 31,7 km/h (5 Bft) S-SW67.5 200 0 min 0 min 9,1 C 1,7 C
26.09.2012 13:44 11,1 C 88 % 1000 hPa 0,0 l/m 22,5 km/h (4 Bft) S-SW45 200 0 min 0 min 9,2 C 4,0 C
26.09.2012 14:00 11,3 C 88 % 1000 hPa 0,0 l/m 24,0 km/h (4 Bft) SW67.5 225 0 min 0 min 9,4 C 3,8 C
26.09.2012 14:15 11,5 C 87 % 1000 hPa 0,0 l/m 30,2 km/h (5 Bft) S45 180 0 min 0 min 9,4 C 2,7 C
26.09.2012 14:29 11,0 C 86 % 1000 hPa 0,0 l/m 29,7 km/h (5 Bft) W-SW45 240 0 min 0 min 8,7 C 2,1 C
26.09.2012 14:44 10,8 C 86 % 1001 hPa 0,0 l/m 32,8 km/h (5 Bft) SW45 230 0 min 0 min 8,6 C 1,2 C
26.09.2012 14:59 10,8 C 87 % 1001 hPa 0,0 l/m 29,0 km/h (5 Bft) SW45 215 0 min 0 min 8,7 C 2,0 C
26.09.2012 15:14 10,4 C 86 % 1001 hPa 0,0 l/m 36,3 km/h (5 Bft) SW45 215 0 min 0 min 8,2 C 0,1 C
26.09.2012 15:30 10,2 C 87 % 1001 hPa 0,0 l/m 29,3 km/h (5 Bft) S-SW45 200 0 min 0 min 8,1 C 1,1 C
26.09.2012 15:45 10,0 C 89 % 1001 hPa 0,0 l/m 29,8 km/h (5 Bft) SW67.5 235 0 min 0 min 8,3 C 0,7 C
26.09.2012 15:59 9,9 C 91 % 1000 hPa 0,0 l/m 25,1 km/h (4 Bft) S-SW45 200 0 min 0 min 8,5 C 1,7 C
26.09.2012 16:14 9,9 C 91 % 1000 hPa 0,0 l/m 28,3 km/h (4 Bft) S-SW45 210 0 min 0 min 8,5 C 0,9 C
26.09.2012 16:29 9,9 C 90 % 1000 hPa 0,0 l/m 33,2 km/h (5 Bft) SW45 220 0 min 0 min 8,3 C -0,1 C
26.09.2012 16:30 9,9 C 90 % 1000 hPa 0,0 l/m 33,2 km/h (5 Bft) SW45 220 0 min 0 min 8,3 C -0,1 C
26.09.2012 16:45 9,8 C 90 % 1000 hPa 0,0 l/m 24,6 km/h (4 Bft) S-SW45 205 0 min 0 min 8,2 C 1,7 C
26.09.2012 16:59 9,8 C 90 % 1001 hPa 0,0 l/m 28,8 km/h (4 Bft) S-SW45 205 0 min 0 min 8,2 C 0,6 C
26.09.2012 17:14 9,9 C 89 % 1001 hPa 0,0 l/m 29,3 km/h (5 Bft) SW67.5 225 0 min 0 min 8,2 C 0,7 C
26.09.2012 17:29 9,9 C 89 % 1001 hPa 0,0 l/m 32,1 km/h (5 Bft) S-SW67.5 200 0 min 0 min 8,2 C 0,1 C
26.09.2012 17:44 9,8 C 89 % 1001 hPa 0,0 l/m 30,8 km/h (5 Bft) S-SW45 205 0 min 0 min 8,1 C 0,2 C
26.09.2012 18:00 10,0 C 89 % 1001 hPa 0,0 l/m 38,3 km/h (5 Bft) SW45 215 0 min 0 min 8,3 C -0,9 C
26.09.2012 18:15 10,0 C 89 % 1001 hPa 0,0 l/m 30,2 km/h (5 Bft) S-SW67.5 200 0 min 0 min 8,3 C 0,6 C
26.09.2012 18:29 9,8 C 89 % 1001 hPa 0,0 l/m 33,1 km/h (5 Bft) SW45 215 0 min 0 min 8,1 C -0,3 C
26.09.2012 18:44 9,6 C 91 % 1001 hPa 0,0 l/m 31,8 km/h (5 Bft) SW45 215 0 min 0 min 8,2 C -0,3 C
26.09.2012 18:59 9,4 C 91 % 1001 hPa 0,0 l/m 29,3 km/h (5 Bft) SW45 215 0 min 0 min 8,0 C -0,0 C
26.09.2012 19:14 9,2 C 93 % 1002 hPa 0,0 l/m 28,0 km/h (4 Bft) SW45 215 0 min 0 min 8,1 C -0,0 C
26.09.2012 19:30 9,1 C 94 % 1002 hPa 0,0 l/m 27,1 km/h (4 Bft) SW67.5 215 0 min 0 min 8,2 C 0,1 C
26.09.2012 19:45 9,0 C 94 % 1001 hPa 0,0 l/m 35,8 km/h (5 Bft) SW45 215 0 min 0 min 8,1 C -1,9 C
26.09.2012 19:59 8,9 C 94 % 1001 hPa 0,0 l/m 30,7 km/h (5 Bft) S-SW45 205 0 min 0 min 8,0 C -1,0 C
26.09.2012 20:14 8,9 C 94 % 1001 hPa 0,0 l/m 28,1 km/h (4 Bft) S-SW45 200 0 min 0 min 8,0 C -0,5 C
26.09.2012 20:29 8,9 C 94 % 1001 hPa 0,0 l/m 30,0 km/h (5 Bft) SW45 225 0 min 0 min 8,0 C -0,9 C
26.09.2012 20:44 8,9 C 93 % 1002 hPa 0,0 l/m 30,0 km/h (5 Bft) SW45 220 0 min 0 min 7,8 C -0,9 C
26.09.2012 21:00 8,9 C 93 % 1001 hPa 0,0 l/m 25,6 km/h (4 Bft) SW45 215 0 min 0 min 7,8 C 0,2 C
26.09.2012 21:15 9,0 C 93 % 1002 hPa 0,0 l/m 21,5 km/h (4 Bft) S-SW45 205 0 min 0 min 7,9 C 1,5 C
26.09.2012 21:14 9,0 C 93 % 1002 hPa 0,0 l/m 21,5 km/h (4 Bft) S-SW45 205 0 min 0 min 7,9 C 1,5 C
26.09.2012 21:29 9,0 C 94 % 1002 hPa 0,0 l/m 25,8 km/h (4 Bft) SW45 215 0 min 0 min 8,1 C 0,3 C
26.09.2012 21:44 8,9 C 94 % 1002 hPa 0,0 l/m 20,7 km/h (4 Bft) SW45 215 0 min 0 min 8,0 C 1,6 C
26.09.2012 21:59 8,9 C 94 % 1002 hPa 0,0 l/m 21,8 km/h (4 Bft) S-SW45 210 0 min 0 min 8,0 C 1,3 C
26.09.2012 22:15 8,9 C 94 % 1002 hPa 0,0 l/m 15,1 km/h (3 Bft) SW45 225 0 min 0 min 8,0 C 3,8 C
26.09.2012 22:29 8,9 C 93 % 1002 hPa 0,0 l/m 26,7 km/h (4 Bft) S-SW45 210 0 min 0 min 7,8 C -0,1 C
26.09.2012 22:44 8,9 C 93 % 1002 hPa 0,0 l/m 28,4 km/h (4 Bft) SW45 220 0 min 0 min 7,8 C -0,5 C
26.09.2012 22:59 8,9 C 93 % 1002 hPa 0,0 l/m 19,8 km/h (3 Bft) SW45 230 0 min 0 min 7,8 C 1,9 C
26.09.2012 23:14 8,9 C 93 % 1002 hPa 0,3 l/m 28,2 km/h (4 Bft) S-SW45 205 0 min 15 min 7,8 C -0,5 C
26.09.2012 23:30 8,9 C 93 % 1002 hPa 0,0 l/m 17,6 km/h (3 Bft) SW45 215 0 min 0 min 7,8 C 2,7 C
26.09.2012 23:45 8,9 C 93 % 1002 hPa 0,0 l/m 21,0 km/h (4 Bft) S-SW45 210 0 min 0 min 7,8 C 1,5 C
26.09.2012 23:59 8,9 C 93 % 1003 hPa 0,0 l/m 22,3 km/h (4 Bft) SW45 230 0 min 0 min 7,8 C 1,1 C
_ Min-Zeit 19:59 14:29 04:44 - 03:15 - - - - 20:44 19:45
Minimum _ 8,9 C 86 % 997 hPa - 11,8 km/h (2 Bft) - - - - 7,8 C -1,9 C
_ Max-Zeit 14:15 06:29 23:59 05:29 18:00 - - 00:00 03:45 12:45 03:15
Maximum _ 11,5 C 97 % 1003 hPa 2,1 l/m 38,3 km/h
SW (5 Bft)
- - 0 min 15 min 9,6 C 6,0 C
Durchschnitt _ 9,6 C 93 % 1000 hPa #13,8 l/m 24,2 km/h (4 Bft) S-SW - #0 min. #5:15 h 8,5 C 1,7 C